sensor_id;sensor_type;location;lat;lon;timestamp;P1;durP1;ratioP1;P2;durP2;ratioP2
62844;SDS011;48929;47.910;20.390;2023-01-19T00:01:14;13.90;;;6.80;;
62844;SDS011;48929;47.910;20.390;2023-01-19T00:03:45;12.73;;;7.28;;
62844;SDS011;48929;47.910;20.390;2023-01-19T00:06:13;13.20;;;7.57;;
62844;SDS011;48929;47.910;20.390;2023-01-19T00:08:41;16.15;;;8.10;;
62844;SDS011;48929;47.910;20.390;2023-01-19T00:11:11;15.38;;;8.18;;
62844;SDS011;48929;47.910;20.390;2023-01-19T00:13:39;13.82;;;8.38;;
62844;SDS011;48929;47.910;20.390;2023-01-19T00:16:08;12.93;;;6.22;;
62844;SDS011;48929;47.910;20.390;2023-01-19T00:18:37;14.32;;;6.55;;
62844;SDS011;48929;47.910;20.390;2023-01-19T00:21:07;16.42;;;5.60;;
62844;SDS011;48929;47.910;20.390;2023-01-19T00:23:36;9.63;;;5.75;;
62844;SDS011;48929;47.910;20.390;2023-01-19T00:26:04;9.30;;;4.43;;
62844;SDS011;48929;47.910;20.390;2023-01-19T00:28:32;9.73;;;5.00;;
62844;SDS011;48929;47.910;20.390;2023-01-19T00:31:01;9.20;;;4.90;;
62844;SDS011;48929;47.910;20.390;2023-01-19T00:33:29;7.82;;;4.97;;
62844;SDS011;48929;47.910;20.390;2023-01-19T00:35:58;6.95;;;4.32;;
62844;SDS011;48929;47.910;20.390;2023-01-19T00:38:28;10.55;;;4.88;;
62844;SDS011;48929;47.910;20.390;2023-01-19T00:40:57;9.07;;;4.07;;
62844;SDS011;48929;47.910;20.390;2023-01-19T00:43:25;7.50;;;3.63;;
62844;SDS011;48929;47.910;20.390;2023-01-19T00:45:54;8.40;;;3.83;;
62844;SDS011;48929;47.910;20.390;2023-01-19T00:48:22;4.60;;;2.63;;
62844;SDS011;48929;47.910;20.390;2023-01-19T00:50:50;5.10;;;2.88;;
62844;SDS011;48929;47.910;20.390;2023-01-19T00:53:19;5.10;;;2.40;;
62844;SDS011;48929;47.910;20.390;2023-01-19T00:55:49;6.72;;;2.80;;
62844;SDS011;48929;47.910;20.390;2023-01-19T00:58:17;3.58;;;2.30;;
62844;SDS011;48929;47.910;20.390;2023-01-19T01:00:49;6.80;;;1.90;;
62844;SDS011;48929;47.910;20.390;2023-01-19T01:03:17;8.43;;;2.22;;
62844;SDS011;48929;47.910;20.390;2023-01-19T01:05:45;10.75;;;2.20;;
62844;SDS011;48929;47.910;20.390;2023-01-19T01:08:14;5.43;;;1.90;;
62844;SDS011;48929;47.910;20.390;2023-01-19T01:10:42;4.05;;;2.17;;
62844;SDS011;48929;47.910;20.390;2023-01-19T01:13:12;3.25;;;1.90;;
62844;SDS011;48929;47.910;20.390;2023-01-19T01:15:49;5.13;;;1.70;;
62844;SDS011;48929;47.910;20.390;2023-01-19T01:18:17;3.65;;;1.70;;
62844;SDS011;48929;47.910;20.390;2023-01-19T01:20:46;2.65;;;1.65;;
62844;SDS011;48929;47.910;20.390;2023-01-19T01:23:14;4.18;;;2.00;;
62844;SDS011;48929;47.910;20.390;2023-01-19T01:25:48;5.80;;;3.15;;
62844;SDS011;48929;47.910;20.390;2023-01-19T01:28:18;2.03;;;1.50;;
62844;SDS011;48929;47.910;20.390;2023-01-19T01:30:47;3.20;;;1.50;;
62844;SDS011;48929;47.910;20.390;2023-01-19T01:33:15;2.03;;;1.40;;
62844;SDS011;48929;47.910;20.390;2023-01-19T01:36:03;3.17;;;1.83;;
62844;SDS011;48929;47.910;20.390;2023-01-19T01:38:32;2.97;;;1.40;;
62844;SDS011;48929;47.910;20.390;2023-01-19T01:41:00;2.42;;;1.60;;
62844;SDS011;48929;47.910;20.390;2023-01-19T01:43:41;2.95;;;1.40;;
62844;SDS011;48929;47.910;20.390;2023-01-19T01:46:11;2.67;;;1.38;;
62844;SDS011;48929;47.910;20.390;2023-01-19T01:48:42;2.03;;;1.40;;
62844;SDS011;48929;47.910;20.390;2023-01-19T01:51:12;2.50;;;1.80;;
62844;SDS011;48929;47.910;20.390;2023-01-19T01:53:54;2.65;;;1.60;;
62844;SDS011;48929;47.910;20.390;2023-01-19T01:56:26;2.13;;;1.60;;
62844;SDS011;48929;47.910;20.390;2023-01-19T01:58:59;4.57;;;1.85;;
62844;SDS011;48929;47.910;20.390;2023-01-19T02:01:30;3.28;;;1.70;;
62844;SDS011;48929;47.910;20.390;2023-01-19T02:04:15;2.97;;;1.60;;
62844;SDS011;48929;47.910;20.390;2023-01-19T02:06:44;3.17;;;1.83;;
62844;SDS011;48929;47.910;20.390;2023-01-19T02:09:30;2.63;;;1.70;;
62844;SDS011;48929;47.910;20.390;2023-01-19T02:12:18;3.33;;;1.73;;
62844;SDS011;48929;47.910;20.390;2023-01-19T02:17:48;3.15;;;1.65;;
62844;SDS011;48929;47.910;20.390;2023-01-19T02:20:16;4.03;;;2.30;;
62844;SDS011;48929;47.910;20.390;2023-01-19T02:22:48;5.78;;;3.35;;
62844;SDS011;48929;47.910;20.390;2023-01-19T02:25:18;7.65;;;4.05;;
62844;SDS011;48929;47.910;20.390;2023-01-19T02:27:47;7.32;;;3.50;;
62844;SDS011;48929;47.910;20.390;2023-01-19T02:30:16;5.90;;;3.30;;
62844;SDS011;48929;47.910;20.390;2023-01-19T02:32:44;7.75;;;3.90;;
62844;SDS011;48929;47.910;20.390;2023-01-19T02:35:13;8.45;;;4.30;;
62844;SDS011;48929;47.910;20.390;2023-01-19T02:37:41;9.02;;;3.95;;
62844;SDS011;48929;47.910;20.390;2023-01-19T02:40:11;7.80;;;4.28;;
62844;SDS011;48929;47.910;20.390;2023-01-19T02:42:42;7.10;;;3.15;;
62844;SDS011;48929;47.910;20.390;2023-01-19T02:45:11;7.53;;;3.78;;
62844;SDS011;48929;47.910;20.390;2023-01-19T02:47:42;6.00;;;3.22;;
62844;SDS011;48929;47.910;20.390;2023-01-19T02:50:33;5.70;;;3.10;;
62844;SDS011;48929;47.910;20.390;2023-01-19T02:53:09;3.70;;;1.80;;
62844;SDS011;48929;47.910;20.390;2023-01-19T02:55:41;3.78;;;2.10;;
62844;SDS011;48929;47.910;20.390;2023-01-19T02:58:14;4.38;;;2.78;;
62844;SDS011;48929;47.910;20.390;2023-01-19T03:00:51;6.13;;;3.35;;
62844;SDS011;48929;47.910;20.390;2023-01-19T03:03:24;5.15;;;3.03;;
62844;SDS011;48929;47.910;20.390;2023-01-19T03:05:59;4.75;;;3.10;;
62844;SDS011;48929;47.910;20.390;2023-01-19T03:08:31;3.42;;;2.15;;
62844;SDS011;48929;47.910;20.390;2023-01-19T03:11:00;3.70;;;2.10;;
62844;SDS011;48929;47.910;20.390;2023-01-19T03:13:33;4.32;;;2.50;;
62844;SDS011;48929;47.910;20.390;2023-01-19T03:18:34;6.32;;;3.38;;
62844;SDS011;48929;47.910;20.390;2023-01-19T03:21:04;7.00;;;4.07;;
62844;SDS011;48929;47.910;20.390;2023-01-19T03:23:33;7.63;;;3.78;;
62844;SDS011;48929;47.910;20.390;2023-01-19T03:26:03;11.55;;;5.75;;
62844;SDS011;48929;47.910;20.390;2023-01-19T03:28:35;8.43;;;4.90;;
62844;SDS011;48929;47.910;20.390;2023-01-19T03:31:08;7.80;;;3.95;;
62844;SDS011;48929;47.910;20.390;2023-01-19T03:33:38;7.13;;;4.20;;
62844;SDS011;48929;47.910;20.390;2023-01-19T03:36:09;9.50;;;4.25;;
62844;SDS011;48929;47.910;20.390;2023-01-19T03:38:40;7.80;;;4.18;;
62844;SDS011;48929;47.910;20.390;2023-01-19T03:41:10;7.63;;;4.68;;
62844;SDS011;48929;47.910;20.390;2023-01-19T03:43:42;8.55;;;5.05;;
62844;SDS011;48929;47.910;20.390;2023-01-19T03:46:11;9.57;;;5.10;;
62844;SDS011;48929;47.910;20.390;2023-01-19T03:48:43;9.75;;;6.07;;
62844;SDS011;48929;47.910;20.390;2023-01-19T03:51:12;8.73;;;5.03;;
62844;SDS011;48929;47.910;20.390;2023-01-19T03:53:41;9.05;;;5.15;;
62844;SDS011;48929;47.910;20.390;2023-01-19T03:56:11;9.10;;;5.38;;
62844;SDS011;48929;47.910;20.390;2023-01-19T03:58:45;9.82;;;5.50;;
62844;SDS011;48929;47.910;20.390;2023-01-19T04:01:14;13.45;;;6.45;;
62844;SDS011;48929;47.910;20.390;2023-01-19T04:03:43;11.00;;;5.90;;
62844;SDS011;48929;47.910;20.390;2023-01-19T04:06:12;11.05;;;5.72;;
62844;SDS011;48929;47.910;20.390;2023-01-19T04:08:41;13.18;;;6.72;;
62844;SDS011;48929;47.910;20.390;2023-01-19T04:11:10;10.23;;;6.10;;
62844;SDS011;48929;47.910;20.390;2023-01-19T04:13:39;8.88;;;4.97;;
62844;SDS011;48929;47.910;20.390;2023-01-19T04:16:09;10.73;;;6.07;;
62844;SDS011;48929;47.910;20.390;2023-01-19T04:18:39;9.35;;;5.47;;
62844;SDS011;48929;47.910;20.390;2023-01-19T04:21:07;9.68;;;5.25;;
62844;SDS011;48929;47.910;20.390;2023-01-19T04:23:36;10.15;;;5.80;;
62844;SDS011;48929;47.910;20.390;2023-01-19T04:26:05;9.55;;;5.57;;
62844;SDS011;48929;47.910;20.390;2023-01-19T04:28:34;10.48;;;6.03;;
62844;SDS011;48929;47.910;20.390;2023-01-19T04:31:04;19.83;;;11.05;;
62844;SDS011;48929;47.910;20.390;2023-01-19T04:33:35;12.48;;;6.57;;
62844;SDS011;48929;47.910;20.390;2023-01-19T04:36:03;10.93;;;5.60;;
62844;SDS011;48929;47.910;20.390;2023-01-19T04:38:32;8.98;;;4.97;;
62844;SDS011;48929;47.910;20.390;2023-01-19T04:41:00;10.35;;;5.55;;
62844;SDS011;48929;47.910;20.390;2023-01-19T04:43:29;13.88;;;5.93;;
62844;SDS011;48929;47.910;20.390;2023-01-19T04:45:57;11.68;;;5.97;;
62844;SDS011;48929;47.910;20.390;2023-01-19T04:48:26;10.45;;;4.85;;
62844;SDS011;48929;47.910;20.390;2023-01-19T04:50:56;8.73;;;4.63;;
62844;SDS011;48929;47.910;20.390;2023-01-19T04:53:24;8.00;;;4.22;;
62844;SDS011;48929;47.910;20.390;2023-01-19T04:55:53;8.05;;;4.28;;
62844;SDS011;48929;47.910;20.390;2023-01-19T04:58:21;9.50;;;4.30;;
62844;SDS011;48929;47.910;20.390;2023-01-19T05:00:50;8.20;;;4.22;;
62844;SDS011;48929;47.910;20.390;2023-01-19T05:03:18;8.43;;;3.90;;
62844;SDS011;48929;47.910;20.390;2023-01-19T05:05:47;9.85;;;4.85;;
62844;SDS011;48929;47.910;20.390;2023-01-19T05:08:17;8.23;;;3.95;;
62844;SDS011;48929;47.910;20.390;2023-01-19T05:10:46;7.90;;;4.13;;
62844;SDS011;48929;47.910;20.390;2023-01-19T05:13:15;9.23;;;4.30;;
62844;SDS011;48929;47.910;20.390;2023-01-19T05:15:43;13.70;;;5.07;;
62844;SDS011;48929;47.910;20.390;2023-01-19T05:18:11;12.65;;;4.90;;
62844;SDS011;48929;47.910;20.390;2023-01-19T05:20:40;11.00;;;5.07;;
62844;SDS011;48929;47.910;20.390;2023-01-19T05:23:09;12.63;;;5.05;;
62844;SDS011;48929;47.910;20.390;2023-01-19T05:25:40;11.88;;;4.72;;
62844;SDS011;48929;47.910;20.390;2023-01-19T05:28:10;9.65;;;4.72;;
62844;SDS011;48929;47.910;20.390;2023-01-19T05:30:38;10.93;;;5.50;;
62844;SDS011;48929;47.910;20.390;2023-01-19T05:33:07;8.95;;;3.92;;
62844;SDS011;48929;47.910;20.390;2023-01-19T05:35:36;10.77;;;5.85;;
62844;SDS011;48929;47.910;20.390;2023-01-19T05:38:07;26.05;;;10.02;;
62844;SDS011;48929;47.910;20.390;2023-01-19T05:40:35;16.52;;;7.53;;
62844;SDS011;48929;47.910;20.390;2023-01-19T05:43:05;15.70;;;6.63;;
62844;SDS011;48929;47.910;20.390;2023-01-19T05:45:33;17.08;;;7.22;;
62844;SDS011;48929;47.910;20.390;2023-01-19T05:48:04;8.98;;;4.93;;
62844;SDS011;48929;47.910;20.390;2023-01-19T05:50:35;10.05;;;5.97;;
62844;SDS011;48929;47.910;20.390;2023-01-19T05:53:03;8.77;;;4.72;;
62844;SDS011;48929;47.910;20.390;2023-01-19T05:55:31;15.30;;;7.95;;
62844;SDS011;48929;47.910;20.390;2023-01-19T05:58:00;19.38;;;13.85;;
62844;SDS011;48929;47.910;20.390;2023-01-19T06:00:30;11.45;;;7.90;;
62844;SDS011;48929;47.910;20.390;2023-01-19T06:02:58;35.15;;;18.95;;
62844;SDS011;48929;47.910;20.390;2023-01-19T06:05:28;24.23;;;14.40;;
62844;SDS011;48929;47.910;20.390;2023-01-19T06:07:57;11.07;;;7.05;;
62844;SDS011;48929;47.910;20.390;2023-01-19T06:10:26;8.73;;;4.80;;
62844;SDS011;48929;47.910;20.390;2023-01-19T06:12:54;9.15;;;4.97;;
62844;SDS011;48929;47.910;20.390;2023-01-19T06:15:22;7.47;;;4.78;;
62844;SDS011;48929;47.910;20.390;2023-01-19T06:17:53;5.65;;;3.53;;
62844;SDS011;48929;47.910;20.390;2023-01-19T06:20:22;9.35;;;5.47;;
62844;SDS011;48929;47.910;20.390;2023-01-19T06:22:50;8.75;;;5.15;;
62844;SDS011;48929;47.910;20.390;2023-01-19T06:25:22;8.10;;;4.03;;
62844;SDS011;48929;47.910;20.390;2023-01-19T06:27:51;9.88;;;5.75;;
62844;SDS011;48929;47.910;20.390;2023-01-19T06:30:19;11.45;;;5.93;;
62844;SDS011;48929;47.910;20.390;2023-01-19T06:32:48;12.52;;;6.43;;
62844;SDS011;48929;47.910;20.390;2023-01-19T06:35:18;9.82;;;5.30;;
62844;SDS011;48929;47.910;20.390;2023-01-19T06:37:47;15.35;;;8.52;;
62844;SDS011;48929;47.910;20.390;2023-01-19T06:40:16;18.90;;;11.20;;
62844;SDS011;48929;47.910;20.390;2023-01-19T06:42:44;15.15;;;8.18;;
62844;SDS011;48929;47.910;20.390;2023-01-19T06:45:13;20.63;;;11.68;;
62844;SDS011;48929;47.910;20.390;2023-01-19T06:47:42;11.35;;;6.63;;
62844;SDS011;48929;47.910;20.390;2023-01-19T06:50:11;12.68;;;7.25;;
62844;SDS011;48929;47.910;20.390;2023-01-19T06:52:41;11.93;;;6.93;;
62844;SDS011;48929;47.910;20.390;2023-01-19T06:55:10;12.35;;;6.35;;
62844;SDS011;48929;47.910;20.390;2023-01-19T06:57:43;13.80;;;7.38;;
62844;SDS011;48929;47.910;20.390;2023-01-19T07:00:12;10.88;;;6.70;;
62844;SDS011;48929;47.910;20.390;2023-01-19T07:02:41;8.65;;;5.25;;
62844;SDS011;48929;47.910;20.390;2023-01-19T07:05:10;10.30;;;7.05;;
62844;SDS011;48929;47.910;20.390;2023-01-19T07:07:41;15.77;;;10.52;;
62844;SDS011;48929;47.910;20.390;2023-01-19T07:10:11;12.77;;;8.50;;
62844;SDS011;48929;47.910;20.390;2023-01-19T07:12:41;11.18;;;7.78;;
62844;SDS011;48929;47.910;20.390;2023-01-19T07:15:12;12.00;;;8.07;;
62844;SDS011;48929;47.910;20.390;2023-01-19T07:17:41;17.20;;;11.73;;
62844;SDS011;48929;47.910;20.390;2023-01-19T07:20:10;17.17;;;12.25;;
62844;SDS011;48929;47.910;20.390;2023-01-19T07:22:42;24.23;;;15.85;;
62844;SDS011;48929;47.910;20.390;2023-01-19T07:25:11;7.53;;;4.22;;
62844;SDS011;48929;47.910;20.390;2023-01-19T07:27:40;10.25;;;5.22;;
62844;SDS011;48929;47.910;20.390;2023-01-19T07:30:08;15.70;;;9.63;;
62844;SDS011;48929;47.910;20.390;2023-01-19T07:32:37;30.60;;;16.58;;
62844;SDS011;48929;47.910;20.390;2023-01-19T07:35:08;13.95;;;7.40;;
62844;SDS011;48929;47.910;20.390;2023-01-19T07:37:37;11.95;;;6.80;;
62844;SDS011;48929;47.910;20.390;2023-01-19T07:40:07;12.88;;;7.25;;
62844;SDS011;48929;47.910;20.390;2023-01-19T07:42:36;17.83;;;8.95;;
62844;SDS011;48929;47.910;20.390;2023-01-19T07:45:05;14.43;;;7.40;;
62844;SDS011;48929;47.910;20.390;2023-01-19T07:47:34;8.95;;;5.80;;
62844;SDS011;48929;47.910;20.390;2023-01-19T07:50:02;9.77;;;5.90;;
62844;SDS011;48929;47.910;20.390;2023-01-19T07:52:31;16.05;;;8.18;;
62844;SDS011;48929;47.910;20.390;2023-01-19T07:55:03;12.73;;;6.18;;
62844;SDS011;48929;47.910;20.390;2023-01-19T07:57:33;10.30;;;6.53;;
62844;SDS011;48929;47.910;20.390;2023-01-19T08:00:02;15.07;;;6.57;;
62844;SDS011;48929;47.910;20.390;2023-01-19T08:02:30;14.70;;;6.55;;
62844;SDS011;48929;47.910;20.390;2023-01-19T08:05:01;19.75;;;9.80;;
62844;SDS011;48929;47.910;20.390;2023-01-19T08:07:30;13.25;;;6.88;;
62844;SDS011;48929;47.910;20.390;2023-01-19T08:10:00;14.98;;;7.85;;
62844;SDS011;48929;47.910;20.390;2023-01-19T08:12:29;9.75;;;6.32;;
62844;SDS011;48929;47.910;20.390;2023-01-19T08:14:59;15.23;;;8.45;;
62844;SDS011;48929;47.910;20.390;2023-01-19T08:17:28;13.55;;;7.68;;
62844;SDS011;48929;47.910;20.390;2023-01-19T08:19:56;15.57;;;7.47;;
62844;SDS011;48929;47.910;20.390;2023-01-19T08:22:25;12.93;;;7.53;;
62844;SDS011;48929;47.910;20.390;2023-01-19T08:24:53;18.17;;;7.90;;
62844;SDS011;48929;47.910;20.390;2023-01-19T08:27:22;16.00;;;6.60;;
62844;SDS011;48929;47.910;20.390;2023-01-19T08:29:51;16.83;;;6.95;;
62844;SDS011;48929;47.910;20.390;2023-01-19T08:32:22;11.93;;;5.07;;
62844;SDS011;48929;47.910;20.390;2023-01-19T08:34:50;12.70;;;5.47;;
62844;SDS011;48929;47.910;20.390;2023-01-19T08:37:19;10.75;;;6.93;;
62844;SDS011;48929;47.910;20.390;2023-01-19T08:39:48;12.43;;;6.78;;
62844;SDS011;48929;47.910;20.390;2023-01-19T08:42:19;11.48;;;6.03;;
62844;SDS011;48929;47.910;20.390;2023-01-19T08:44:47;11.23;;;6.40;;
62844;SDS011;48929;47.910;20.390;2023-01-19T08:47:26;10.52;;;6.18;;
62844;SDS011;48929;47.910;20.390;2023-01-19T08:49:56;14.93;;;7.07;;
62844;SDS011;48929;47.910;20.390;2023-01-19T08:52:25;12.77;;;6.88;;
62844;SDS011;48929;47.910;20.390;2023-01-19T08:54:55;12.63;;;6.78;;
62844;SDS011;48929;47.910;20.390;2023-01-19T08:57:23;10.23;;;6.13;;
62844;SDS011;48929;47.910;20.390;2023-01-19T08:59:52;9.82;;;5.55;;
62844;SDS011;48929;47.910;20.390;2023-01-19T09:02:21;12.60;;;6.75;;
62844;SDS011;48929;47.910;20.390;2023-01-19T09:04:51;13.02;;;7.20;;
62844;SDS011;48929;47.910;20.390;2023-01-19T09:07:20;13.75;;;7.60;;
62844;SDS011;48929;47.910;20.390;2023-01-19T09:09:49;20.77;;;9.30;;
62844;SDS011;48929;47.910;20.390;2023-01-19T09:12:17;14.88;;;6.97;;
62844;SDS011;48929;47.910;20.390;2023-01-19T09:14:46;13.18;;;7.40;;
62844;SDS011;48929;47.910;20.390;2023-01-19T09:17:15;13.52;;;7.10;;
62844;SDS011;48929;47.910;20.390;2023-01-19T09:19:44;15.15;;;8.32;;
62844;SDS011;48929;47.910;20.390;2023-01-19T09:22:15;14.20;;;7.80;;
62844;SDS011;48929;47.910;20.390;2023-01-19T09:24:47;14.13;;;8.20;;
62844;SDS011;48929;47.910;20.390;2023-01-19T09:27:15;15.73;;;8.60;;
62844;SDS011;48929;47.910;20.390;2023-01-19T09:29:44;19.48;;;9.75;;
62844;SDS011;48929;47.910;20.390;2023-01-19T09:32:18;18.13;;;9.75;;
62844;SDS011;48929;47.910;20.390;2023-01-19T09:34:47;13.85;;;7.28;;
62844;SDS011;48929;47.910;20.390;2023-01-19T09:37:18;10.40;;;5.90;;
62844;SDS011;48929;47.910;20.390;2023-01-19T09:39:47;11.13;;;5.50;;
62844;SDS011;48929;47.910;20.390;2023-01-19T09:42:17;10.55;;;5.40;;
62844;SDS011;48929;47.910;20.390;2023-01-19T09:44:49;12.35;;;6.25;;
62844;SDS011;48929;47.910;20.390;2023-01-19T09:47:20;9.80;;;5.75;;
62844;SDS011;48929;47.910;20.390;2023-01-19T09:49:52;9.52;;;5.60;;
62844;SDS011;48929;47.910;20.390;2023-01-19T09:52:26;10.90;;;5.95;;
62844;SDS011;48929;47.910;20.390;2023-01-19T09:54:55;12.00;;;6.40;;
62844;SDS011;48929;47.910;20.390;2023-01-19T09:57:24;12.02;;;7.07;;
62844;SDS011;48929;47.910;20.390;2023-01-19T09:59:53;10.93;;;6.10;;
62844;SDS011;48929;47.910;20.390;2023-01-19T10:02:27;14.10;;;6.95;;
62844;SDS011;48929;47.910;20.390;2023-01-19T10:04:58;13.75;;;7.20;;
62844;SDS011;48929;47.910;20.390;2023-01-19T10:10:18;15.40;;;8.30;;
62844;SDS011;48929;47.910;20.390;2023-01-19T10:12:49;14.00;;;7.85;;
62844;SDS011;48929;47.910;20.390;2023-01-19T10:15:21;14.95;;;8.18;;
62844;SDS011;48929;47.910;20.390;2023-01-19T10:17:57;12.35;;;7.28;;
62844;SDS011;48929;47.910;20.390;2023-01-19T10:20:32;11.20;;;6.65;;
62844;SDS011;48929;47.910;20.390;2023-01-19T10:23:03;8.82;;;5.05;;
62844;SDS011;48929;47.910;20.390;2023-01-19T10:25:34;10.43;;;5.40;;
62844;SDS011;48929;47.910;20.390;2023-01-19T10:28:02;10.85;;;5.57;;
62844;SDS011;48929;47.910;20.390;2023-01-19T10:30:31;12.27;;;6.95;;
62844;SDS011;48929;47.910;20.390;2023-01-19T10:33:00;12.20;;;6.07;;
62844;SDS011;48929;47.910;20.390;2023-01-19T10:35:30;9.13;;;5.35;;
62844;SDS011;48929;47.910;20.390;2023-01-19T10:37:58;11.07;;;6.82;;
62844;SDS011;48929;47.910;20.390;2023-01-19T10:40:29;11.45;;;7.25;;
62844;SDS011;48929;47.910;20.390;2023-01-19T10:43:01;13.45;;;7.78;;
62844;SDS011;48929;47.910;20.390;2023-01-19T10:45:51;13.55;;;8.45;;
62844;SDS011;48929;47.910;20.390;2023-01-19T10:48:20;13.63;;;8.35;;
62844;SDS011;48929;47.910;20.390;2023-01-19T10:50:48;14.32;;;8.13;;
62844;SDS011;48929;47.910;20.390;2023-01-19T10:53:28;12.88;;;7.28;;
62844;SDS011;48929;47.910;20.390;2023-01-19T10:56:12;12.40;;;6.60;;
62844;SDS011;48929;47.910;20.390;2023-01-19T11:01:14;8.95;;;5.20;;
62844;SDS011;48929;47.910;20.390;2023-01-19T11:03:43;7.45;;;4.47;;
62844;SDS011;48929;47.910;20.390;2023-01-19T11:06:18;6.93;;;4.35;;
62844;SDS011;48929;47.910;20.390;2023-01-19T11:08:48;6.80;;;4.38;;
62844;SDS011;48929;47.910;20.390;2023-01-19T11:11:17;9.73;;;5.90;;
62844;SDS011;48929;47.910;20.390;2023-01-19T11:14:00;10.35;;;5.85;;
62844;SDS011;48929;47.910;20.390;2023-01-19T11:16:31;8.90;;;5.43;;
62844;SDS011;48929;47.910;20.390;2023-01-19T11:19:00;10.60;;;6.05;;
62844;SDS011;48929;47.910;20.390;2023-01-19T11:21:30;9.10;;;5.50;;
62844;SDS011;48929;47.910;20.390;2023-01-19T11:23:59;10.75;;;6.63;;
62844;SDS011;48929;47.910;20.390;2023-01-19T11:26:32;10.75;;;6.80;;
62844;SDS011;48929;47.910;20.390;2023-01-19T11:29:01;14.98;;;8.40;;
62844;SDS011;48929;47.910;20.390;2023-01-19T11:31:33;15.57;;;8.23;;
62844;SDS011;48929;47.910;20.390;2023-01-19T11:34:02;13.00;;;7.68;;
62844;SDS011;48929;47.910;20.390;2023-01-19T11:36:31;14.32;;;7.57;;
62844;SDS011;48929;47.910;20.390;2023-01-19T11:39:12;15.50;;;9.80;;
62844;SDS011;48929;47.910;20.390;2023-01-19T11:41:43;14.60;;;8.20;;
62844;SDS011;48929;47.910;20.390;2023-01-19T11:44:13;14.68;;;8.02;;
62844;SDS011;48929;47.910;20.390;2023-01-19T11:46:45;15.85;;;8.10;;
62844;SDS011;48929;47.910;20.390;2023-01-19T11:49:19;10.65;;;5.70;;
62844;SDS011;48929;47.910;20.390;2023-01-19T11:51:50;12.60;;;7.38;;
62844;SDS011;48929;47.910;20.390;2023-01-19T11:54:24;14.35;;;8.07;;
62844;SDS011;48929;47.910;20.390;2023-01-19T11:56:54;15.70;;;7.72;;
62844;SDS011;48929;47.910;20.390;2023-01-19T11:59:23;14.20;;;7.22;;
62844;SDS011;48929;47.910;20.390;2023-01-19T12:01:54;11.32;;;6.95;;
62844;SDS011;48929;47.910;20.390;2023-01-19T12:04:24;11.45;;;7.03;;
62844;SDS011;48929;47.910;20.390;2023-01-19T12:06:53;14.10;;;7.57;;
62844;SDS011;48929;47.910;20.390;2023-01-19T12:09:23;12.00;;;7.28;;
62844;SDS011;48929;47.910;20.390;2023-01-19T12:11:54;11.90;;;7.18;;
62844;SDS011;48929;47.910;20.390;2023-01-19T12:14:26;12.02;;;6.20;;
62844;SDS011;48929;47.910;20.390;2023-01-19T12:16:58;14.43;;;8.15;;
62844;SDS011;48929;47.910;20.390;2023-01-19T12:19:28;12.30;;;7.00;;
62844;SDS011;48929;47.910;20.390;2023-01-19T12:22:00;10.88;;;6.07;;
62844;SDS011;48929;47.910;20.390;2023-01-19T12:24:31;11.13;;;5.88;;
62844;SDS011;48929;47.910;20.390;2023-01-19T12:27:04;13.93;;;8.10;;
62844;SDS011;48929;47.910;20.390;2023-01-19T12:29:35;14.95;;;8.65;;
62844;SDS011;48929;47.910;20.390;2023-01-19T12:32:18;12.27;;;6.95;;
62844;SDS011;48929;47.910;20.390;2023-01-19T12:34:47;13.88;;;7.57;;
62844;SDS011;48929;47.910;20.390;2023-01-19T12:40:03;16.73;;;8.93;;
62844;SDS011;48929;47.910;20.390;2023-01-19T12:42:44;14.30;;;8.60;;
62844;SDS011;48929;47.910;20.390;2023-01-19T12:45:14;11.32;;;7.35;;
62844;SDS011;48929;47.910;20.390;2023-01-19T12:47:50;12.38;;;7.30;;
62844;SDS011;48929;47.910;20.390;2023-01-19T12:50:22;13.75;;;7.55;;
62844;SDS011;48929;47.910;20.390;2023-01-19T12:52:53;12.45;;;7.80;;
62844;SDS011;48929;47.910;20.390;2023-01-19T12:55:24;15.57;;;7.95;;
62844;SDS011;48929;47.910;20.390;2023-01-19T12:57:55;22.23;;;12.52;;
62844;SDS011;48929;47.910;20.390;2023-01-19T13:00:35;18.10;;;11.85;;
62844;SDS011;48929;47.910;20.390;2023-01-19T13:05:49;13.70;;;8.32;;
62844;SDS011;48929;47.910;20.390;2023-01-19T13:08:21;18.17;;;8.27;;
62844;SDS011;48929;47.910;20.390;2023-01-19T13:13:36;13.30;;;7.72;;
62844;SDS011;48929;47.910;20.390;2023-01-19T13:18:51;12.95;;;7.47;;
62844;SDS011;48929;47.910;20.390;2023-01-19T13:21:26;12.95;;;7.78;;
62844;SDS011;48929;47.910;20.390;2023-01-19T13:23:56;13.50;;;7.97;;
62844;SDS011;48929;47.910;20.390;2023-01-19T13:26:26;13.70;;;8.02;;
62844;SDS011;48929;47.910;20.390;2023-01-19T13:28:54;15.82;;;8.98;;
62844;SDS011;48929;47.910;20.390;2023-01-19T13:31:24;17.80;;;8.98;;
62844;SDS011;48929;47.910;20.390;2023-01-19T13:33:53;16.88;;;9.32;;
62844;SDS011;48929;47.910;20.390;2023-01-19T13:36:24;15.48;;;8.13;;
62844;SDS011;48929;47.910;20.390;2023-01-19T13:38:56;14.00;;;8.20;;
62844;SDS011;48929;47.910;20.390;2023-01-19T13:41:26;16.60;;;10.07;;
62844;SDS011;48929;47.910;20.390;2023-01-19T13:43:58;18.02;;;9.25;;
62844;SDS011;48929;47.910;20.390;2023-01-19T13:46:27;19.55;;;9.88;;
62844;SDS011;48929;47.910;20.390;2023-01-19T13:49:00;18.58;;;9.90;;
62844;SDS011;48929;47.910;20.390;2023-01-19T13:51:31;16.38;;;8.20;;
62844;SDS011;48929;47.910;20.390;2023-01-19T13:54:02;17.63;;;9.52;;
62844;SDS011;48929;47.910;20.390;2023-01-19T13:56:31;20.35;;;10.27;;
62844;SDS011;48929;47.910;20.390;2023-01-19T13:59:01;17.70;;;10.15;;
62844;SDS011;48929;47.910;20.390;2023-01-19T14:01:36;16.33;;;9.10;;
62844;SDS011;48929;47.910;20.390;2023-01-19T14:04:05;15.65;;;8.88;;
62844;SDS011;48929;47.910;20.390;2023-01-19T14:06:35;19.42;;;10.80;;
62844;SDS011;48929;47.910;20.390;2023-01-19T14:09:12;15.35;;;8.32;;
62844;SDS011;48929;47.910;20.390;2023-01-19T14:11:43;13.68;;;7.47;;
62844;SDS011;48929;47.910;20.390;2023-01-19T14:14:20;13.23;;;7.70;;
62844;SDS011;48929;47.910;20.390;2023-01-19T14:16:49;11.38;;;6.78;;
62844;SDS011;48929;47.910;20.390;2023-01-19T14:19:18;11.45;;;6.68;;
62844;SDS011;48929;47.910;20.390;2023-01-19T14:21:56;11.05;;;6.13;;
62844;SDS011;48929;47.910;20.390;2023-01-19T14:24:27;11.27;;;6.43;;
62844;SDS011;48929;47.910;20.390;2023-01-19T14:27:09;10.32;;;5.95;;
62844;SDS011;48929;47.910;20.390;2023-01-19T14:29:40;13.43;;;6.38;;
62844;SDS011;48929;47.910;20.390;2023-01-19T14:32:11;20.92;;;11.27;;
62844;SDS011;48929;47.910;20.390;2023-01-19T14:34:43;14.10;;;7.05;;
62844;SDS011;48929;47.910;20.390;2023-01-19T14:37:17;17.42;;;9.20;;
62844;SDS011;48929;47.910;20.390;2023-01-19T14:39:48;16.13;;;9.40;;
62844;SDS011;48929;47.910;20.390;2023-01-19T14:42:21;15.73;;;8.38;;
62844;SDS011;48929;47.910;20.390;2023-01-19T14:44:51;11.98;;;7.32;;
62844;SDS011;48929;47.910;20.390;2023-01-19T14:50:04;8.18;;;5.03;;
62844;SDS011;48929;47.910;20.390;2023-01-19T14:52:35;7.85;;;4.65;;
62844;SDS011;48929;47.910;20.390;2023-01-19T14:55:14;9.15;;;4.75;;
62844;SDS011;48929;47.910;20.390;2023-01-19T14:57:43;6.45;;;3.67;;
62844;SDS011;48929;47.910;20.390;2023-01-19T15:00:13;7.25;;;3.50;;
62844;SDS011;48929;47.910;20.390;2023-01-19T15:02:43;7.70;;;3.60;;
62844;SDS011;48929;47.910;20.390;2023-01-19T15:05:12;7.97;;;3.75;;
62844;SDS011;48929;47.910;20.390;2023-01-19T15:07:42;8.90;;;4.13;;
62844;SDS011;48929;47.910;20.390;2023-01-19T15:10:14;7.25;;;4.22;;